Time;durP1;ratioP1;P1;durP2;ratioP2;P2;SDS_P1;SDS_P2;PMS_P1;PMS_P2;Temp;Humidity;BMP_temperature;BMP_pressure;BME280_temperature;BME280_humidity;BME280_pressure;Samples;Min_cycle;Max_cycle;Signal;HPM_P1;HPM_P2
2023/11/26 00:01:41;;;;;;;6.68;1.88;;;;;;;-146.27;85.73;33751.72;5102683;28;20077;-69
2023/11/26 00:04:08;;;;;;;13.95;1.92;;;;;;;-146.27;85.60;33706.06;5101710;28;20024;-69
2023/11/26 00:06:34;;;;;;;11.82;2.13;;;;;;;-146.27;85.89;33727.91;5100048;28;20403;-69
2023/11/26 00:08:59;;;;;;;14.73;1.42;;;;;;;-146.27;85.64;33634.66;5095456;28;20015;-69
2023/11/26 00:11:25;;;;;;;12.50;1.58;;;;;;;-146.27;85.64;33604.88;5095892;28;20023;-69
2023/11/26 00:13:51;;;;;;;6.32;0.90;;;;;;;-146.27;85.52;33604.88;5098145;28;20705;-70
2023/11/26 00:16:16;;;;;;;6.88;1.10;;;;;;;-146.27;85.28;33591.00;5103800;28;20110;-69
2023/11/26 00:18:41;;;;;;;10.70;1.05;;;;;;;-146.27;85.42;33589.00;5099335;28;20050;-69
2023/11/26 00:21:07;;;;;;;12.90;1.00;;;;;;;-146.27;85.37;33589.00;5097122;28;20031;-69
2023/11/26 00:23:32;;;;;;;12.30;1.35;;;;;;;-146.27;85.51;33565.19;5103270;28;20356;-69
2023/11/26 00:25:58;;;;;;;7.57;1.20;;;;;;;-146.27;85.56;33638.59;5095585;28;20467;-71
2023/11/26 00:28:23;;;;;;;5.07;1.30;;;;;;;-146.27;85.67;33606.88;5097549;28;20028;-70
2023/11/26 00:30:48;;;;;;;8.50;1.48;;;;;;;-146.27;85.16;33612.81;5078048;28;20032;-71
2023/11/26 00:33:15;;;;;;;10.95;1.35;;;;;;;-146.27;85.45;33622.75;5091540;28;20060;-70
2023/11/26 00:35:41;;;;;;;7.55;1.00;;;;;;;-146.27;85.13;33620.75;5098208;28;20431;-69
2023/11/26 00:38:06;;;;;;;6.18;1.17;;;;;;;-146.27;85.29;33634.66;5111364;28;20034;-70
2023/11/26 00:40:32;;;;;;;9.77;1.17;;;;;;;-146.27;85.00;33648.53;5097544;28;20028;-69
2023/11/26 00:42:57;;;;;;;11.73;1.23;;;;;;;-146.27;85.40;33684.25;5103391;28;20047;-69
2023/11/26 00:45:22;;;;;;;9.38;1.45;;;;;;;-146.27;85.43;33692.19;5104251;28;20104;-70
2023/11/26 00:47:48;;;;;;;7.40;1.33;;;;;;;-146.27;85.79;33690.19;5092768;28;20028;-69
2023/11/26 00:50:14;;;;;;;8.65;1.40;;;;;;;-146.27;85.67;33708.06;5109803;28;20019;-71
2023/11/26 00:52:39;;;;;;;9.13;1.17;;;;;;;-146.27;85.67;33714.00;5097229;28;20433;-69
2023/11/26 00:55:06;;;;;;;4.47;0.95;;;;;;;-146.27;85.83;33735.84;5095773;28;20099;-70
2023/11/26 00:57:31;;;;;;;10.88;1.08;;;;;;;-146.27;85.98;33737.81;5109105;28;20161;-69
2023/11/26 00:59:57;;;;;;;4.43;1.38;;;;;;;-146.27;86.45;33727.91;5099532;28;20099;-70
2023/11/26 01:02:23;;;;;;;10.07;1.17;;;;;;;-146.27;86.58;33751.72;5095165;28;20043;-70
2023/11/26 01:04:49;;;;;;;4.63;1.30;;;;;;;-146.27;85.95;33696.16;5072292;28;20055;-71
2023/11/26 01:07:14;;;;;;;10.57;1.65;;;;;;;-146.27;86.13;33751.72;5104237;28;20032;-70
2023/11/26 01:09:40;;;;;;;8.50;1.40;;;;;;;-146.27;86.13;33727.91;5102983;28;20400;-70
2023/11/26 01:12:05;;;;;;;10.18;1.70;;;;;;;-146.27;86.40;33779.50;5094688;28;20030;-68
2023/11/26 01:14:31;;;;;;;6.13;2.67;;;;;;;-146.27;86.66;33739.81;5093904;28;20162;-70
2023/11/26 01:16:57;;;;;;;14.52;2.20;;;;;;;-146.27;86.78;33708.06;5096855;28;20023;-70
2023/11/26 01:19:22;;;;;;;7.43;1.65;;;;;;;-146.27;86.75;33708.06;5095207;28;20143;-69
2023/11/26 01:21:47;;;;;;;7.05;1.60;;;;;;;-146.27;87.02;33739.81;5090026;28;20077;-70
2023/11/26 01:24:13;;;;;;;8.95;1.63;;;;;;;-146.27;86.94;33717.97;5092300;28;20027;-70
2023/11/26 01:26:39;;;;;;;10.80;1.65;;;;;;;-146.27;86.94;33731.88;5093920;28;20514;-70
2023/11/26 01:29:04;;;;;;;5.05;1.70;;;;;;;-146.27;86.80;33684.25;5092338;28;20103;-70
2023/11/26 01:31:30;;;;;;;10.13;2.50;;;;;;;-146.27;87.13;33684.25;5091482;28;20015;-70
2023/11/26 01:33:55;;;;;;;4.78;1.15;;;;;;;-146.27;87.02;33672.34;5101747;28;20024;-70
2023/11/26 01:36:21;;;;;;;5.07;1.45;;;;;;;-146.27;86.93;33692.19;5090479;28;20028;-69
2023/11/26 01:38:46;;;;;;;4.57;1.30;;;;;;;-146.27;86.96;33747.75;5095640;28;21483;-69
2023/11/26 01:41:12;;;;;;;10.90;2.17;;;;;;;-146.27;86.94;33739.81;5095814;28;20515;-69
2023/11/26 01:43:37;;;;;;;4.85;1.70;;;;;;;-146.27;86.99;33712.03;5104361;28;20487;-70
2023/11/26 01:46:09;;;;;;;3.92;1.27;;;;;;;-146.27;87.07;33708.06;5104927;28;20119;-69
2023/11/26 01:48:36;;;;;;;9.32;2.08;;;;;;;-146.27;87.24;33696.16;5098869;28;20023;-70
2023/11/26 01:51:05;;;;;;;6.22;1.70;;;;;;;-146.27;87.41;33702.09;5092309;28;20364;-70
2023/11/26 01:53:31;;;;;;;7.88;2.60;;;;;;;-146.27;87.56;33719.97;5090276;28;20032;-69
2023/11/26 01:55:57;;;;;;;6.43;1.75;;;;;;;-146.27;87.63;33700.13;5096199;28;20106;-70
2023/11/26 01:58:23;;;;;;;10.73;1.70;;;;;;;-146.27;87.40;33725.91;5096174;28;20581;-70
2023/11/26 02:00:50;;;;;;;4.05;1.73;;;;;;;-146.27;87.56;33716.00;5094018;28;20058;-70
2023/11/26 02:03:16;;;;;;;11.48;1.67;;;;;;;-146.27;87.31;33656.47;5092474;28;20519;-69
2023/11/26 02:05:42;;;;;;;15.95;1.58;;;;;;;-146.27;87.43;33727.91;5092572;28;20539;-69
2023/11/26 02:08:08;;;;;;;7.72;1.40;;;;;;;-146.27;87.28;33723.94;5098271;28;20130;-70
2023/11/26 02:10:33;;;;;;;10.20;2.15;;;;;;;-146.27;87.43;33765.59;5099571;28;20028;-70
2023/11/26 02:13:03;;;;;;;13.80;1.65;;;;;;;-146.27;87.35;33700.13;5098935;28;20169;-70
2023/11/26 02:15:29;;;;;;;5.72;1.50;;;;;;;-146.27;87.27;33725.91;5102927;28;20023;-69
2023/11/26 02:17:55;;;;;;;15.23;1.65;;;;;;;-146.27;87.24;33716.00;5092781;28;20028;-69
2023/11/26 02:20:22;;;;;;;12.18;1.77;;;;;;;-146.27;87.54;33729.88;5090285;28;20058;-68
2023/11/26 02:22:48;;;;;;;8.63;1.95;;;;;;;-146.27;87.31;33660.44;5095679;28;20042;-70
2023/11/26 02:25:13;;;;;;;6.35;1.23;;;;;;;-146.27;87.31;33743.78;5101252;28;20020;-70
2023/11/26 02:27:39;;;;;;;9.73;1.27;;;;;;;-146.27;87.46;33751.72;5101574;28;20032;-70
2023/11/26 02:30:05;;;;;;;5.47;1.63;;;;;;;-146.27;87.24;33749.72;5091364;28;20514;-69
2023/11/26 02:32:31;;;;;;;10.73;1.40;;;;;;;-146.27;87.64;33704.09;5093939;28;20510;-70
2023/11/26 02:34:57;;;;;;;7.28;1.30;;;;;;;-146.27;87.53;33743.78;5100400;28;20365;-68
2023/11/26 02:37:22;;;;;;;5.28;0.85;;;;;;;-146.27;87.81;33751.72;5105315;28;20110;-71
2023/11/26 02:39:48;;;;;;;3.88;0.80;;;;;;;-146.27;88.02;33733.84;5109716;28;20030;-70
2023/11/26 02:42:13;;;;;;;12.63;1.55;;;;;;;-146.27;87.98;33698.13;5096349;28;20027;-71
2023/11/26 02:44:39;;;;;;;10.65;1.30;;;;;;;-146.27;88.05;33652.50;5089656;28;20540;-69
2023/11/26 02:47:07;;;;;;;12.30;1.25;;;;;;;-146.27;88.02;33644.56;5102923;28;20028;-69
2023/11/26 02:49:33;;;;;;;6.65;0.98;;;;;;;-146.27;88.09;33620.75;5094306;28;20031;-69
2023/11/26 02:51:58;;;;;;;7.55;1.30;;;;;;;-146.27;87.90;33634.66;5091418;28;20035;-70
2023/11/26 02:54:24;;;;;;;10.88;1.83;;;;;;;-146.27;87.78;33608.84;5104051;28;20020;-70
2023/11/26 02:56:49;;;;;;;12.60;1.25;;;;;;;-146.27;87.77;33664.41;5090045;28;20137;-69
2023/11/26 02:59:15;;;;;;;9.48;1.00;;;;;;;-146.27;87.73;33652.50;5106889;28;20089;-69
2023/11/26 03:01:40;;;;;;;5.95;0.98;;;;;;;-146.27;87.73;33658.44;5090836;28;20090;-69
2023/11/26 03:04:09;;;;;;;10.13;1.10;;;;;;;-146.27;87.70;33640.59;5096402;28;20031;-69
2023/11/26 03:06:35;;;;;;;8.15;1.05;;;;;;;-146.27;87.70;33652.50;5093247;28;20032;-70
2023/11/26 03:09:10;;;;;;;6.35;1.10;;;;;;;-146.27;87.75;33614.81;5091636;28;20023;-69
2023/11/26 03:14:20;;;;;;;10.93;1.45;;;;;;;-146.27;87.65;33656.47;5098735;28;20066;-68
2023/11/26 03:16:45;;;;;;;7.97;1.10;;;;;;;-146.27;87.99;33664.41;5107262;28;20114;-70
2023/11/26 03:19:15;;;;;;;8.57;1.20;;;;;;;-146.27;88.10;33648.53;5094732;28;20044;-70
2023/11/26 03:21:44;;;;;;;9.95;1.10;;;;;;;-146.27;87.94;33672.34;5092338;28;20111;-69
2023/11/26 03:24:13;;;;;;;10.50;1.73;;;;;;;-146.27;87.61;33656.47;5101924;28;20365;-71
2023/11/26 03:26:39;;;;;;;8.30;1.08;;;;;;;-146.27;87.69;33656.47;5093269;28;20070;-70
2023/11/26 03:29:05;;;;;;;7.80;1.08;;;;;;;-146.27;87.72;33632.66;5105765;28;20439;-70
2023/11/26 03:31:31;;;;;;;16.20;4.15;;;;;;;-146.27;87.75;33648.53;5095687;28;20049;-70
2023/11/26 03:33:57;;;;;;;14.40;1.25;;;;;;;-146.27;87.63;33668.38;5101276;28;20011;-70
2023/11/26 03:36:22;;;;;;;6.82;1.63;;;;;;;-146.27;87.70;33640.59;5098305;28;20106;-70
2023/11/26 03:38:48;;;;;;;3.67;0.85;;;;;;;-146.27;87.67;33654.47;5093663;28;20032;-69
2023/11/26 03:41:13;;;;;;;6.25;1.27;;;;;;;-146.27;87.94;33662.41;5092966;28;20429;-70
2023/11/26 03:43:39;;;;;;;13.90;2.33;;;;;;;-146.27;87.80;33704.09;5092824;28;20387;-69
2023/11/26 03:46:04;;;;;;;14.18;2.65;;;;;;;-146.27;87.65;33658.44;5103150;28;20020;-71
2023/11/26 03:48:30;;;;;;;10.25;2.45;;;;;;;-146.27;87.70;33700.13;5096064;28;20024;-69
2023/11/26 03:50:55;;;;;;;13.73;3.30;;;;;;;-146.27;87.92;33704.09;5092398;28;20030;-70
2023/11/26 03:53:20;;;;;;;6.90;2.47;;;;;;;-146.27;88.09;33710.03;5075451;28;20038;-71
2023/11/26 03:55:46;;;;;;;12.98;2.70;;;;;;;-146.27;87.85;33694.16;5102931;28;20023;-70
2023/11/26 03:58:11;;;;;;;6.07;2.00;;;;;;;-146.27;88.10;33708.06;5098375;28;20076;-70
2023/11/26 04:00:38;;;;;;;5.65;2.22;;;;;;;-146.27;88.01;33727.91;5090772;28;20243;-69
2023/11/26 04:03:03;;;;;;;6.93;1.65;;;;;;;-146.27;87.97;33646.53;5088979;28;20032;-69
2023/11/26 04:05:28;;;;;;;7.55;1.38;;;;;;;-146.27;87.97;33706.06;5087189;28;20047;-71
2023/11/26 04:07:54;;;;;;;13.95;1.15;;;;;;;-146.27;88.08;33739.81;5087796;28;20051;-70
2023/11/26 04:10:19;;;;;;;7.95;1.48;;;;;;;-146.27;88.46;33706.06;5093539;28;20062;-69
2023/11/26 04:12:44;;;;;;;10.93;1.25;;;;;;;-146.27;88.41;33717.97;5106677;28;20031;-69
2023/11/26 04:15:11;;;;;;;4.38;0.95;;;;;;;-146.27;88.40;33716.00;5103721;28;20365;-69
2023/11/26 04:17:36;;;;;;;8.57;2.10;;;;;;;-146.27;88.40;33719.97;5100523;28;20055;-69
2023/11/26 04:20:05;;;;;;;3.22;0.90;;;;;;;-146.27;88.24;33686.22;5099724;28;20043;-70
2023/11/26 04:22:32;;;;;;;9.40;1.20;;;;;;;-146.27;88.35;33680.28;5094723;28;20495;-69
2023/11/26 04:24:58;;;;;;;4.22;1.40;;;;;;;-146.27;88.56;33690.19;5103334;28;20038;-69
2023/11/26 04:27:25;;;;;;;13.95;1.67;;;;;;;-146.27;88.75;33664.41;5096431;28;20513;-69
2023/11/26 04:29:51;;;;;;;7.80;1.40;;;;;;;-146.27;88.86;33652.50;5097357;28;20092;-69
2023/11/26 04:32:16;;;;;;;8.77;1.33;;;;;;;-146.27;88.72;33664.41;5097820;28;20032;-70
2023/11/26 04:34:42;;;;;;;13.20;1.02;;;;;;;-146.27;88.73;33628.69;5104944;28;20440;-69
2023/11/26 04:37:10;;;;;;;5.35;1.10;;;;;;;-146.27;88.56;33640.59;5100428;28;20016;-69
2023/11/26 04:39:36;;;;;;;9.40;1.42;;;;;;;-146.27;88.64;33656.47;5090294;28;20031;-68
2023/11/26 04:42:02;;;;;;;3.10;1.20;;;;;;;-146.27;88.48;33644.56;5106005;28;20028;-69
2023/11/26 04:44:27;;;;;;;7.28;1.30;;;;;;;-146.27;88.41;33644.56;5099278;28;20062;-69
2023/11/26 04:46:53;;;;;;;9.57;2.50;;;;;;;-146.27;88.51;33628.69;5096712;28;20055;-70
2023/11/26 04:49:19;;;;;;;3.28;1.45;;;;;;;-146.27;88.43;33624.72;5092613;28;20476;-71
2023/11/26 04:51:47;;;;;;;10.63;1.38;;;;;;;-146.27;88.25;33596.94;5103747;28;20050;-69
2023/11/26 04:54:13;;;;;;;9.40;1.52;;;;;;;-146.27;88.29;33618.78;5092027;28;20020;-69
2023/11/26 04:56:39;;;;;;;9.70;1.98;;;;;;;-146.27;88.36;33628.69;5098489;28;20084;-69
2023/11/26 04:59:04;;;;;;;22.45;1.83;;;;;;;-146.27;88.40;33678.28;5096724;28;20093;-70
2023/11/26 05:01:31;;;;;;;9.05;1.42;;;;;;;-146.27;88.37;33672.34;5096933;28;20418;-69
2023/11/26 05:03:56;;;;;;;10.27;1.80;;;;;;;-146.27;88.32;33672.34;5104797;28;20032;-70
2023/11/26 05:06:22;;;;;;;4.82;1.88;;;;;;;-146.27;88.51;33680.28;5104050;28;20031;-70
2023/11/26 05:08:49;;;;;;;7.53;1.65;;;;;;;-146.27;89.08;33696.16;5101488;28;20049;-69
2023/11/26 05:11:15;;;;;;;9.60;1.70;;;;;;;-146.27;88.63;33634.66;5097851;28;20031;-70
2023/11/26 05:13:40;;;;;;;13.80;1.40;;;;;;;-146.27;89.06;33628.69;5109587;28;20028;-68
2023/11/26 05:16:06;;;;;;;12.30;1.60;;;;;;;-146.27;88.73;33636.63;5110522;28;20379;-70
2023/11/26 05:18:32;;;;;;;8.70;1.55;;;;;;;-146.27;88.78;33674.31;5100192;28;20509;-70
2023/11/26 05:20:57;;;;;;;7.15;1.00;;;;;;;-146.27;88.74;33634.66;5094808;28;20139;-71
2023/11/26 05:23:23;;;;;;;6.55;1.40;;;;;;;-146.27;88.75;33592.97;5090908;28;20067;-69
2023/11/26 05:25:49;;;;;;;6.95;0.88;;;;;;;-146.27;88.64;33644.56;5101427;28;20023;-71
2023/11/26 05:28:14;;;;;;;10.77;0.90;;;;;;;-146.27;88.54;33549.31;5100158;28;20081;-69
2023/11/26 05:30:39;;;;;;;2.17;1.10;;;;;;;-146.27;88.51;33644.56;5097523;28;20020;-70
2023/11/26 05:33:05;;;;;;;10.20;0.90;;;;;;;-146.27;88.57;33604.88;5093258;28;20119;-71
2023/11/26 05:35:30;;;;;;;7.35;1.75;;;;;;;-146.27;88.48;33598.94;5090941;28;20020;-70
2023/11/26 05:37:56;;;;;;;10.52;1.30;;;;;;;-146.27;88.48;33616.78;5090388;28;20032;-69
2023/11/26 05:40:22;;;;;;;3.35;0.85;;;;;;;-146.27;88.48;33585.03;5099438;28;20087;-69
2023/11/26 05:42:48;;;;;;;4.18;0.90;;;;;;;-146.27;88.43;33585.03;5095463;28;20057;-68
2023/11/26 05:45:14;;;;;;;6.57;1.02;;;;;;;-146.27;88.32;33600.91;5095766;28;20027;-68
2023/11/26 05:47:39;;;;;;;3.20;0.93;;;;;;;-146.27;88.53;33632.66;5094376;28;20468;-70
2023/11/26 05:50:06;;;;;;;4.35;0.80;;;;;;;-146.27;88.53;33618.78;5090717;28;20472;-70
2023/11/26 05:52:33;;;;;;;4.93;0.77;;;;;;;-146.27;88.59;33632.66;5107239;28;20039;-69
2023/11/26 05:54:58;;;;;;;6.07;0.82;;;;;;;-146.27;88.53;33640.59;5111031;28;20020;-70
2023/11/26 05:57:24;;;;;;;8.35;1.10;;;;;;;-146.27;88.97;33626.72;5094394;28;20024;-71
2023/11/26 05:59:49;;;;;;;10.55;1.42;;;;;;;-146.27;88.69;33684.25;5101314;28;20032;-69
2023/11/26 06:02:15;;;;;;;5.18;0.95;;;;;;;-146.27;88.69;33660.44;5072102;28;20051;-71
2023/11/26 06:04:40;;;;;;;6.10;1.10;;;;;;;-146.27;88.87;33672.34;5090174;28;20039;-70
2023/11/26 06:07:06;;;;;;;5.82;1.05;;;;;;;-146.27;88.72;33680.28;5091264;28;20111;-70
2023/11/26 06:09:31;;;;;;;5.35;1.10;;;;;;;-146.27;88.78;33727.91;5095614;28;20074;-69
2023/11/26 06:11:57;;;;;;;7.70;0.98;;;;;;;-146.27;88.83;33721.94;5091108;28;20081;-69
2023/11/26 06:14:23;;;;;;;5.47;1.05;;;;;;;-146.27;88.86;33680.28;5090680;28;20031;-69
2023/11/26 06:16:49;;;;;;;5.63;0.95;;;;;;;-146.27;88.78;33696.16;5099252;28;20046;-70
2023/11/26 06:19:16;;;;;;;17.50;2.45;;;;;;;-146.27;89.08;33700.13;5101679;28;20040;-69
2023/11/26 06:21:42;;;;;;;4.47;1.10;;;;;;;-146.27;88.94;33672.34;5102665;28;20091;-71
2023/11/26 06:24:09;;;;;;;9.57;1.30;;;;;;;-146.27;88.80;33723.94;5101825;28;20028;-71
2023/11/26 06:26:35;;;;;;;3.90;1.00;;;;;;;-146.27;88.74;33696.16;5091082;28;20028;-71
2023/11/26 06:29:00;;;;;;;8.35;1.45;;;;;;;-146.27;88.61;33712.03;5095769;28;20035;-69
2023/11/26 06:31:25;;;;;;;3.60;1.15;;;;;;;-146.27;88.83;33700.13;5098040;28;20031;-70
2023/11/26 06:33:51;;;;;;;8.02;1.20;;;;;;;-146.27;88.74;33680.28;5095288;28;20551;-69
2023/11/26 06:36:18;;;;;;;11.60;1.27;;;;;;;-146.27;88.74;33698.13;5098931;28;20957;-70
2023/11/26 06:38:43;;;;;;;7.13;1.60;;;;;;;-146.27;88.88;33704.09;5095777;28;20704;-69
2023/11/26 06:41:09;;;;;;;9.27;1.25;;;;;;;-146.27;88.78;33660.44;5097178;28;20070;-68
2023/11/26 06:43:34;;;;;;;6.07;1.23;;;;;;;-146.27;88.89;33632.66;5102937;28;20027;-70
2023/11/26 06:45:59;;;;;;;6.78;1.17;;;;;;;-146.27;88.71;33666.38;5096075;28;20500;-69
2023/11/26 06:48:25;;;;;;;4.85;1.10;;;;;;;-146.27;88.72;33656.47;5099639;28;20060;-69
2023/11/26 06:50:50;;;;;;;6.40;2.05;;;;;;;-146.27;88.96;33680.28;5095532;28;20150;-68
2023/11/26 06:53:16;;;;;;;5.95;1.15;;;;;;;-146.27;89.00;33674.31;5095448;28;20511;-71
2023/11/26 06:55:41;;;;;;;3.20;1.50;;;;;;;-146.27;89.16;33666.38;5100838;28;20027;-69
2023/11/26 06:58:07;;;;;;;4.28;1.55;;;;;;;-146.27;89.16;33606.88;5101817;28;20023;-70
2023/11/26 07:00:32;;;;;;;13.30;1.58;;;;;;;-146.27;89.08;33604.88;5095783;28;20496;-69
2023/11/26 07:02:58;;;;;;;11.10;1.70;;;;;;;-146.27;89.05;33642.56;5099980;28;20059;-69
2023/11/26 07:05:24;;;;;;;14.02;2.17;;;;;;;-146.27;89.05;33628.69;5100263;28;20038;-70
2023/11/26 07:07:49;;;;;;;9.35;1.60;;;;;;;-146.27;89.08;33644.56;5095263;28;20023;-70
2023/11/26 07:10:15;;;;;;;11.50;2.10;;;;;;;-146.27;89.00;33628.69;5097474;28;20411;-71
2023/11/26 07:12:40;;;;;;;6.72;1.95;;;;;;;-146.27;88.98;33640.59;5094086;28;20016;-69
2023/11/26 07:15:06;;;;;;;15.15;2.20;;;;;;;-146.27;89.11;33654.47;5096069;28;20028;-69
2023/11/26 07:17:32;;;;;;;8.60;1.60;;;;;;;-146.27;88.91;33604.88;5095367;28;20047;-69
2023/11/26 07:19:57;;;;;;;6.50;1.52;;;;;;;-146.27;88.83;33624.72;5093835;28;20072;-70
2023/11/26 07:22:23;;;;;;;6.50;1.55;;;;;;;-146.27;88.78;33608.84;5093912;28;20379;-69
2023/11/26 07:24:48;;;;;;;4.22;1.30;;;;;;;-146.27;88.64;33600.91;5097983;28;20110;-71
2023/11/26 07:27:14;;;;;;;4.22;1.10;;;;;;;-146.27;88.62;33594.97;5113847;28;20027;-70
2023/11/26 07:29:40;;;;;;;5.20;1.35;;;;;;;-146.27;88.70;33620.75;5113534;28;20099;-70
2023/11/26 07:32:06;;;;;;;4.93;1.58;;;;;;;-146.27;88.75;33616.78;5094640;28;20047;-71
2023/11/26 07:34:32;;;;;;;14.52;1.58;;;;;;;-146.27;88.75;33630.69;5104167;28;20426;-70
2023/11/26 07:36:57;;;;;;;4.78;1.95;;;;;;;-146.27;88.85;33644.56;5093102;28;20157;-71
2023/11/26 07:39:24;;;;;;;5.43;1.42;;;;;;;-146.27;89.06;33664.41;5075078;28;20073;-70
2023/11/26 07:41:49;;;;;;;9.43;3.05;;;;;;;-146.27;89.21;33624.72;5095031;28;20035;-70
2023/11/26 07:44:14;;;;;;;5.22;2.03;;;;;;;-146.27;89.50;33634.66;5103227;28;20488;-68
2023/11/26 07:46:40;;;;;;;6.72;1.73;;;;;;;-146.27;89.30;33642.56;5097112;28;20468;-67
2023/11/26 07:49:06;;;;;;;11.63;3.30;;;;;;;-146.27;89.30;33672.34;5098044;28;20116;-70
2023/11/26 07:51:32;;;;;;;9.70;2.25;;;;;;;-146.27;89.16;33596.94;5108450;28;20486;-70
2023/11/26 07:53:57;;;;;;;10.98;1.85;;;;;;;-146.27;89.10;33614.81;5083593;28;20035;-69
2023/11/26 07:56:22;;;;;;;13.38;2.58;;;;;;;-146.27;89.13;33628.69;5098725;28;20012;-68
2023/11/26 07:58:48;;;;;;;18.67;2.83;;;;;;;-146.27;89.29;33604.88;5098493;28;20027;-69
2023/11/26 08:01:13;;;;;;;26.25;7.78;;;;;;;-146.27;89.17;33620.75;5102790;28;20211;-72
2023/11/26 08:03:39;;;;;;;16.33;4.90;;;;;;;-146.27;89.03;33598.94;5092272;28;20032;-68
2023/11/26 08:06:06;;;;;;;11.77;2.45;;;;;;;-146.27;89.25;33616.78;5092002;28;20024;-70
2023/11/26 08:08:36;;;;;;;10.43;3.15;;;;;;;-146.27;89.33;33620.75;5100079;28;20153;-70
2023/11/26 08:11:07;;;;;;;16.35;3.85;;;;;;;-146.27;89.39;33589.00;5078135;28;20054;-71
2023/11/26 08:13:35;;;;;;;16.13;2.58;;;;;;;-146.27;89.34;33569.16;5097183;28;20102;-70
2023/11/26 08:16:00;;;;;;;10.80;2.47;;;;;;;-146.27;89.28;33547.34;5101095;28;20047;-68
2023/11/26 08:18:29;;;;;;;6.63;1.90;;;;;;;-146.27;89.29;33561.22;5093221;28;20377;-69
2023/11/26 08:20:55;;;;;;;7.38;2.03;;;;;;;-146.27;89.32;33529.47;5096640;28;20023;-70
2023/11/26 08:23:20;;;;;;;8.10;2.38;;;;;;;-146.27;89.48;33549.31;5098028;28;20933;-71
2023/11/26 08:25:47;;;;;;;6.80;1.80;;;;;;;-146.27;89.37;33473.91;5100446;28;20040;-69
2023/11/26 08:28:13;;;;;;;9.18;2.17;;;;;;;-146.27;89.26;33515.59;5097097;28;20039;-70
2023/11/26 08:30:42;;;;;;;11.77;2.40;;;;;;;-146.27;89.14;33499.72;5110356;28;20035;-69
2023/11/26 08:33:10;;;;;;;11.20;2.10;;;;;;;-146.27;89.19;33521.53;5106324;28;20020;-68
2023/11/26 08:35:37;;;;;;;8.10;1.95;;;;;;;-146.27;89.24;33485.81;5097224;28;20081;-71
2023/11/26 08:38:05;;;;;;;4.47;1.58;;;;;;;-146.27;89.08;33465.97;5073791;28;20016;-71
2023/11/26 08:40:33;;;;;;;11.30;2.47;;;;;;;-146.27;89.15;33456.06;5076117;28;20051;-70
2023/11/26 08:43:03;;;;;;;9.25;2.28;;;;;;;-146.27;89.23;33450.09;5106402;28;20030;-69
2023/11/26 08:45:30;;;;;;;9.75;2.92;;;;;;;-146.27;89.47;33460.03;5101108;28;20024;-70
2023/11/26 08:47:56;;;;;;;13.07;3.13;;;;;;;-146.27;89.34;33424.31;5100374;28;20480;-72
2023/11/26 08:50:22;;;;;;;5.45;2.70;;;;;;;-146.27;89.24;33442.16;5098739;28;20035;-69
2023/11/26 08:52:53;;;;;;;11.48;2.85;;;;;;;-146.27;89.32;33428.28;5080616;28;20122;-71
2023/11/26 08:55:19;;;;;;;12.20;2.97;;;;;;;-146.27;89.20;33386.63;5092444;28;20050;-71
2023/11/26 08:57:45;;;;;;;8.35;3.10;;;;;;;-146.27;89.30;33422.34;5091934;28;20024;-70
2023/11/26 09:00:11;;;;;;;6.88;2.63;;;;;;;-146.27;89.21;33390.59;5095567;28;20019;-70
2023/11/26 09:02:38;;;;;;;12.27;3.53;;;;;;;-146.27;89.26;33394.56;5101998;28;20054;-71
2023/11/26 09:05:07;;;;;;;15.98;3.28;;;;;;;-146.27;89.22;33406.47;5095344;28;20026;-70
2023/11/26 09:07:39;;;;;;;9.45;2.80;;;;;;;-146.27;89.32;33339.00;5073168;28;20062;-70
2023/11/26 09:10:05;;;;;;;9.88;3.03;;;;;;;-146.27;89.24;33344.94;5093060;28;20505;-72
2023/11/26 09:12:30;;;;;;;11.38;3.17;;;;;;;-146.27;89.46;33327.09;5107049;28;20027;-69
2023/11/26 09:14:56;;;;;;;7.07;3.20;;;;;;;-146.27;89.34;33323.13;5110993;28;20023;-70
2023/11/26 09:17:21;;;;;;;10.60;2.30;;;;;;;-146.27;89.29;33317.16;5111385;28;20513;-70
2023/11/26 09:19:47;;;;;;;13.88;2.72;;;;;;;-146.27;89.31;33299.31;5111586;28;20075;-70
2023/11/26 09:22:13;;;;;;;11.20;2.90;;;;;;;-146.27;89.33;33307.25;5106174;28;20477;-71
2023/11/26 09:24:39;;;;;;;11.10;3.13;;;;;;;-146.27;89.45;33297.31;5111683;28;20031;-71
2023/11/26 09:27:06;;;;;;;10.23;2.80;;;;;;;-146.27;89.59;33303.28;5106920;28;20101;-71
2023/11/26 09:29:31;;;;;;;14.18;3.13;;;;;;;-146.27;89.46;33275.50;5109780;28;20028;-70
2023/11/26 09:31:57;;;;;;;14.05;3.08;;;;;;;-146.27;89.40;33243.75;5110043;28;20088;-70
2023/11/26 09:34:22;;;;;;;14.43;3.35;;;;;;;-146.27;89.17;33210.03;5111450;28;20051;-70
2023/11/26 09:36:47;;;;;;;11.73;2.58;;;;;;;-146.27;89.26;33259.63;5099605;28;20032;-70
2023/11/26 09:39:13;;;;;;;9.63;2.53;;;;;;;-146.27;89.26;33243.75;5095800;28;20031;-70
2023/11/26 09:41:38;;;;;;;8.68;2.50;;;;;;;-146.27;89.19;33275.50;5091935;28;20475;-70
2023/11/26 09:44:07;;;;;;;9.73;2.55;;;;;;;-146.27;89.16;33182.25;5095038;28;20023;-70
2023/11/26 09:46:36;;;;;;;3.72;2.30;;;;;;;-146.27;88.83;33231.84;5097033;28;20032;-71
2023/11/26 09:49:05;;;;;;;9.50;2.33;;;;;;;-146.27;88.93;33251.69;5101901;28;20085;-71
2023/11/26 09:51:32;;;;;;;9.25;2.83;;;;;;;-146.27;88.76;33198.13;5095572;28;20040;-71
2023/11/26 09:53:57;;;;;;;7.90;2.28;;;;;;;-146.27;88.79;33229.88;5104639;28;20501;-68
2023/11/26 09:56:24;;;;;;;14.38;3.00;;;;;;;-146.27;88.43;33219.94;5110072;28;20028;-68
2023/11/26 09:58:49;;;;;;;10.43;2.63;;;;;;;-146.27;88.70;33200.09;5104899;28;20534;-68
2023/11/26 10:01:14;;;;;;;9.10;1.83;;;;;;;-146.27;88.60;33229.88;5096889;28;20111;-69
2023/11/26 10:03:59;;;;;;;12.82;2.20;;;;;;;-146.27;88.71;33265.59;5090708;28;20119;-68
2023/11/26 10:06:25;;;;;;;10.38;2.45;;;;;;;-146.27;88.86;33214.00;5090179;28;20408;-69
2023/11/26 10:08:50;;;;;;;12.23;3.03;;;;;;;-146.27;88.66;33214.00;5098715;28;20095;-70
2023/11/26 10:11:23;;;;;;;8.52;2.38;;;;;;;-146.27;88.51;33192.16;5105002;28;20098;-74
2023/11/26 10:13:53;;;;;;;11.00;1.88;;;;;;;-146.27;88.51;33192.16;5082042;28;20032;-72
2023/11/26 10:16:33;;;;;;;14.95;1.77;;;;;;;-146.27;88.52;33225.91;5105572;28;20468;-70
2023/11/26 10:19:00;;;;;;;6.45;2.22;;;;;;;-146.27;88.56;33215.97;5094674;28;20048;-70
2023/11/26 10:21:26;;;;;;;4.15;1.67;;;;;;;-146.27;88.47;33233.84;5092451;28;20042;-69
2023/11/26 10:23:52;;;;;;;11.35;1.15;;;;;;;-146.27;88.92;33259.63;5097769;27;20035;-70
2023/11/26 10:26:22;;;;;;;7.40;1.00;;;;;;;-146.27;88.67;33231.84;5101619;27;20511;-71
2023/11/26 10:29:08;;;;;;;6.45;1.80;;;;;;;-146.27;88.64;33212.00;5093905;28;20471;-70
2023/11/26 10:31:34;;;;;;;8.13;1.85;;;;;;;-146.27;88.23;33275.50;5091008;28;20028;-70
2023/11/26 10:34:11;;;;;;;4.88;1.30;;;;;;;-146.27;88.19;33225.91;5102471;28;20028;-69
2023/11/26 10:36:36;;;;;;;7.15;1.30;;;;;;;-146.27;88.31;33245.75;5075554;28;20027;-69
2023/11/26 10:39:04;;;;;;;7.57;1.77;;;;;;;-146.27;88.26;33192.16;5113911;28;20018;-70
2023/11/26 10:41:34;;;;;;;6.95;1.50;;;;;;;-146.27;88.05;33194.16;5100733;28;20318;-68
2023/11/26 10:44:01;;;;;;;55.78;25.13;;;;;;;-146.27;88.34;33178.28;5093036;28;20483;-68
2023/11/26 10:46:29;;;;;;;14.25;3.75;;;;;;;-146.27;89.29;33235.81;5092756;28;20491;-67
2023/11/26 10:49:01;;;;;;;9.68;2.08;;;;;;;-146.27;89.40;33168.38;5070815;28;20106;-69
2023/11/26 10:51:28;;;;;;;6.53;1.25;;;;;;;-146.27;88.97;33160.44;5097493;28;20073;-68
2023/11/26 10:54:10;;;;;;;7.60;1.35;;;;;;;-146.27;88.89;33140.59;5088968;28;20027;-69
2023/11/26 10:56:38;;;;;;;6.28;1.55;;;;;;;-146.27;88.65;33110.81;5106215;28;20372;-68
2023/11/26 10:59:08;;;;;;;10.85;1.83;;;;;;;-146.27;88.56;33152.50;5096190;28;20028;-69
2023/11/26 11:01:37;;;;;;;6.03;1.30;;;;;;;-146.27;88.71;33118.75;5093121;28;20411;-68
2023/11/26 11:04:03;;;;;;;10.85;1.52;;;;;;;-146.27;88.58;33079.09;5089320;28;20028;-68
2023/11/26 11:06:29;;;;;;;7.38;1.42;;;;;;;-146.27;88.21;33081.06;5106135;28;20020;-68
2023/11/26 11:08:56;;;;;;;11.18;1.60;;;;;;;-146.27;88.18;33112.81;5089257;28;20082;-70
2023/11/26 11:11:45;;;;;;;8.02;1.55;;;;;;;-146.27;88.05;33077.09;5099544;28;20027;-70
2023/11/26 11:14:12;;;;;;;7.78;1.70;;;;;;;-146.27;88.31;33029.47;5107785;28;20369;-69